Mission, South Dakota
Current Conditions -  °F | °C
As of 7:52 PM on Monday 20 Oct 2014 (Local Time) from KVTN Reporting Station
Clear Clear  
Wind Chill: 63°   Ceiling: Unl
Heat Index: 63°   Visibility: 10mi
Dew Point: 39°   Wind: 12mph
Humidity: 41%   Direction: 170°S
Pressure: 29.99"   Gusts: NA
Location:  43.31°N, 100.66°W
Report Text: KVTN 210152Z AUTO 17010KT 10SM CLR 17/04 A2999 RMK AO2 SLP159 T01720039
Loading
Personal Weather Stations






























Interactive Weather Map
Tropical Storm Tracking
New forecast layout! Learn more

10-Day Weather Forecast

Advertisements
Track Severe Weather on mobile